Time;durP1;ratioP1;P1;durP2;ratioP2;P2;SDS_P1;SDS_P2;PMS_P1;PMS_P2;Temp;Humidity;BMP_temperature;BMP_pressure;BME280_temperature;BME280_humidity;BME280_pressure;Samples;Min_cycle;Max_cycle;Signal;HPM_P1;HPM_P2
2022/09/11 01:35:58;;;;;;;;;;;;;;;;;;;;;
2022/09/11 01:41:39;;;;;;;4.90;1.77;;;14.90;99.90;;;14.16;100.00;101407.34;5280999;22;20024;-74
2022/09/11 01:44:01;;;;;;;3.58;1.40;;;14.90;99.90;;;14.11;100.00;101407.03;5278125;22;20009;-74
2022/09/11 01:46:06;;;;;;;5.57;1.10;;;14.90;99.90;;;14.07;100.00;101410.97;5277963;22;20002;-74
2022/09/11 01:48:09;;;;;;;2.35;1.13;;;14.80;99.90;;;14.08;100.00;101412.66;5275111;22;20003;-74
2022/09/11 01:50:14;;;;;;;2.03;1.02;;;14.80;99.90;;;14.03;100.00;101407.00;5275731;22;20059;-74
2022/09/11 01:52:21;;;;;;;3.47;1.10;;;14.80;99.90;;;13.99;100.00;101402.19;5275677;22;20006;-74
2022/09/11 01:54:28;;;;;;;2.10;1.20;;;14.80;99.90;;;14.00;100.00;101404.69;5275835;22;20081;-74
2022/09/11 01:56:39;;;;;;;1.90;1.40;;;14.80;99.90;;;14.17;100.00;101427.59;5303182;22;20040;-74
2022/09/11 01:58:42;;;;;;;2.70;1.60;;;14.80;99.90;;;14.07;100.00;101402.19;5276548;22;20022;-74
2022/09/11 02:00:48;;;;;;;4.20;1.40;;;14.80;99.90;;;14.13;100.00;101414.81;5301622;22;20030;-74
2022/09/11 02:02:59;;;;;;;2.30;1.00;;;14.80;99.90;;;14.04;100.00;101403.34;5249159;22;20007;-74
2022/09/11 02:05:17;;;;;;;2.28;1.05;;;14.80;99.90;;;14.18;100.00;101423.13;5276119;22;20002;-74
2022/09/11 02:07:42;;;;;;;2.78;1.17;;;14.80;99.90;;;14.06;100.00;101414.66;5303181;22;20368;-74
2022/09/11 02:09:55;;;;;;;3.75;1.02;;;14.80;99.90;;;14.00;100.00;101415.28;5249255;22;20355;-74
2022/09/11 02:12:02;;;;;;;2.60;1.05;;;14.70;99.90;;;13.99;100.00;101424.22;5275630;22;20009;-74
2022/09/11 02:14:47;;;;;;;1.50;1.00;;;14.70;99.90;;;14.06;100.00;101432.38;5275888;22;20391;-74
2022/09/11 02:17:04;;;;;;;3.78;1.50;;;14.70;99.90;;;13.89;100.00;101407.59;5275116;22;20061;-74
2022/09/11 02:19:10;;;;;;;2.05;1.10;;;14.70;99.90;;;13.86;100.00;101402.63;5275853;22;20450;-75
2022/09/11 02:21:11;;;;;;;1.77;0.90;;;14.60;99.90;;;13.93;100.00;101414.25;5302429;22;20025;-74
2022/09/11 02:23:15;;;;;;;4.32;1.40;;;14.70;99.90;;;13.90;100.00;101406.63;5248323;22;20030;-74
2022/09/11 02:25:16;;;;;;;2.15;1.20;;;14.60;99.90;;;13.94;100.00;101417.75;5249225;22;20027;-74
2022/09/11 02:27:25;;;;;;;2.30;0.90;;;14.70;99.90;;;13.93;100.00;101410.78;5274676;22;19998;-74
2022/09/11 02:29:26;;;;;;;2.08;0.90;;;14.70;99.90;;;13.84;100.00;101405.47;5248960;22;20395;-74
2022/09/11 02:31:27;;;;;;;1.92;0.80;;;14.70;99.90;;;13.86;100.00;101407.94;5302907;22;20009;-74
2022/09/11 02:33:37;;;;;;;3.88;1.08;;;14.60;99.90;;;13.89;100.00;101410.25;5274487;22;20018;-74
2022/09/11 02:35:49;;;;;;;2.75;0.70;;;14.60;99.90;;;13.87;100.00;101412.25;5249197;22;20011;-73
2022/09/11 02:38:20;;;;;;;2.72;1.42;;;14.60;99.90;;;13.97;100.00;101423.56;5275070;22;20059;-74
2022/09/11 02:40:42;;;;;;;2.35;1.40;;;14.60;99.90;;;14.04;100.00;101421.91;5276438;22;20010;-74
2022/09/11 02:43:01;;;;;;;2.30;1.17;;;14.60;99.90;;;14.10;100.00;101426.56;5276491;22;19998;-74
2022/09/11 02:45:28;;;;;;;2.15;1.20;;;14.70;99.90;;;14.13;100.00;101418.28;5276391;22;20013;-74
2022/09/11 02:48:16;;;;;;;3.40;1.20;;;14.70;99.90;;;14.12;100.00;101408.69;5276170;22;20055;-74
2022/09/11 02:51:00;;;;;;;2.33;1.10;;;14.80;99.90;;;14.08;100.00;101394.06;5275180;22;20481;-74
2022/09/11 02:53:23;;;;;;;2.03;1.00;;;14.80;99.90;;;14.13;100.00;101406.84;5265176;22;20032;-74
2022/09/11 02:55:37;;;;;;;1.95;1.00;;;14.80;99.90;;;14.16;100.00;101412.66;5252708;22;20030;-74
2022/09/11 02:57:54;;;;;;;;;;;14.80;99.90;;;14.01;100.00;101390.41;5249116;22;20172;-74
2022/09/11 03:00:01;;;;;;;2.83;1.10;;;14.80;99.90;;;14.16;100.00;101417.13;5275308;22;19906;-74
2022/09/11 03:02:02;;;;;;;3.10;1.02;;;14.80;99.90;;;13.99;100.00;101379.13;5274507;22;19999;-74
2022/09/11 03:04:03;;;;;;;4.35;1.83;;;14.80;99.90;;;14.02;100.00;101378.81;5274805;22;19999;-74
2022/09/11 03:06:06;;;;;;;1.30;0.70;;;14.80;99.90;;;14.19;100.00;101399.06;5276417;22;20002;-74
2022/09/11 03:08:08;;;;;;;7.03;1.25;;;14.80;99.90;;;14.03;100.00;101364.56;5274915;22;20082;-74
2022/09/11 03:10:10;;;;;;;2.90;1.13;;;14.90;99.90;;;14.14;100.00;101379.31;5276182;22;20006;-74
2022/09/11 03:12:11;;;;;;;5.30;1.58;;;14.90;99.90;;;14.20;100.00;101395.44;5274742;22;20013;-74
2022/09/11 03:14:13;;;;;;;2.33;1.30;;;14.90;99.90;;;14.23;100.00;101405.72;5274353;22;20002;-74
2022/09/11 03:16:14;;;;;;;3.65;1.60;;;14.90;99.90;;;14.11;100.00;101385.78;5276384;22;20002;-74
2022/09/11 03:18:15;;;;;;;4.68;2.20;;;14.90;99.90;;;14.19;100.00;101399.06;5275685;22;19999;-74
2022/09/11 03:20:16;;;;;;;5.18;2.30;;;14.90;99.90;;;14.20;100.00;101397.25;5274591;22;20071;-74
2022/09/11 03:22:17;;;;;;;9.50;3.40;;;14.90;99.90;;;14.20;100.00;101381.31;5276201;22;20022;-74
2022/09/11 03:24:18;;;;;;;4.82;2.13;;;14.90;99.90;;;14.24;100.00;101380.84;5276053;22;20003;-74
2022/09/11 03:26:19;;;;;;;6.10;2.60;;;15.00;99.90;;;14.28;100.00;101368.06;5274687;22;20002;-74
2022/09/11 03:28:21;;;;;;;4.85;2.53;;;15.00;99.90;;;14.38;100.00;101371.44;5276001;22;20006;-74
2022/09/11 03:30:22;;;;;;;8.35;3.30;;;15.10;99.90;;;14.39;100.00;101373.91;5274604;22;20002;-74
2022/09/11 03:32:23;;;;;;;6.13;3.58;;;15.10;99.90;;;14.60;100.00;101393.84;5247697;22;20003;-74
2022/09/11 03:34:25;;;;;;;10.05;3.80;;;15.20;99.90;;;14.52;100.00;101370.75;5297388;22;20010;-74
2022/09/11 03:36:26;;;;;;;8.85;3.60;;;15.20;99.90;;;14.71;100.00;101391.66;5302284;22;20002;-74
2022/09/11 03:38:27;;;;;;;8.23;3.42;;;15.30;99.90;;;14.77;100.00;101388.34;5300727;22;20450;-74
2022/09/11 03:40:28;;;;;;;6.38;2.78;;;15.40;99.90;;;14.69;100.00;101374.25;5302341;22;20005;-74
2022/09/11 03:42:29;;;;;;;5.85;3.05;;;15.40;99.90;;;14.76;100.00;101368.09;5274531;22;20056;-74
2022/09/11 03:44:30;;;;;;;6.20;2.72;;;15.50;99.90;;;14.77;100.00;101363.63;5274600;22;20056;-74
2022/09/11 03:46:31;;;;;;;5.15;2.72;;;15.50;99.90;;;14.81;100.00;101362.28;5302318;22;19998;-74
2022/09/11 03:48:33;;;;;;;8.40;3.70;;;15.60;99.90;;;14.88;100.00;101371.22;5301923;22;20002;-74
2022/09/11 03:50:34;;;;;;;8.20;3.88;;;15.60;99.90;;;14.92;100.00;101359.28;5274489;22;20022;-74
2022/09/11 03:52:35;;;;;;;6.30;3.22;;;15.60;99.90;;;14.94;100.00;101363.41;5302263;22;20002;-74
2022/09/11 03:54:37;;;;;;;6.43;2.88;;;15.70;99.90;;;14.99;100.00;101362.91;5274518;22;20366;-74
2022/09/11 03:56:37;;;;;;;4.07;3.22;;;15.70;99.90;;;15.12;100.00;101373.00;5302324;22;20006;-74
2022/09/11 03:58:39;;;;;;;7.22;4.15;;;15.80;99.90;;;15.15;100.00;101372.66;5302449;22;20010;-74
2022/09/11 04:00:42;;;;;;;7.43;3.30;;;15.80;99.90;;;14.96;100.00;101334.03;5274617;22;20033;-74
2022/09/11 04:02:43;;;;;;;5.45;3.67;;;15.80;99.90;;;15.10;100.00;101351.94;5301939;22;20081;-74
2022/09/11 04:04:44;;;;;;;6.63;3.75;;;15.80;99.90;;;15.10;100.00;101351.94;5274378;22;20430;-74
2022/09/11 04:06:45;;;;;;;6.63;3.95;;;15.80;99.90;;;15.08;100.00;101345.13;5302263;22;20009;-74
2022/09/11 04:08:46;;;;;;;5.38;3.47;;;15.90;99.90;;;15.09;100.00;101344.94;5274372;22;20002;-74
2022/09/11 04:10:47;;;;;;;6.70;3.50;;;15.90;99.90;;;15.14;100.00;101341.78;5248435;22;20010;-74
2022/09/11 04:12:48;;;;;;;6.22;3.78;;;15.90;99.90;;;15.26;100.00;101356.38;5302236;22;20013;-74
2022/09/11 04:14:49;;;;;;;9.68;4.78;;;15.90;99.90;;;15.15;100.00;101343.44;5302218;22;20006;-74
2022/09/11 04:16:50;;;;;;;7.47;4.68;;;15.90;99.90;;;15.27;100.00;101361.50;5273861;22;20013;-74
2022/09/11 04:18:53;;;;;;;7.93;4.85;;;15.90;99.90;;;15.18;100.00;101346.56;5301966;22;20422;-74
2022/09/11 04:20:53;;;;;;;6.95;4.63;;;16.00;99.90;;;15.19;100.00;101334.97;5302570;22;20009;-74
2022/09/11 04:22:54;;;;;;;6.13;4.30;;;16.00;99.90;;;15.23;100.00;101343.41;5302567;22;20349;-74
2022/09/11 04:24:56;;;;;;;5.65;3.63;;;16.00;99.90;;;15.18;100.00;101332.47;5304136;22;20338;-74
2022/09/11 04:26:59;;;;;;;5.80;3.47;;;16.00;99.90;;;15.35;100.00;101350.81;5302301;22;20005;-74
2022/09/11 04:29:00;;;;;;;4.97;3.73;;;16.00;99.90;;;15.36;100.00;101354.31;5276312;22;20002;-74
2022/09/11 04:31:03;;;;;;;5.57;3.30;;;16.00;99.90;;;15.37;100.00;101354.16;5303829;22;20002;-74
2022/09/11 04:33:05;;;;;;;6.78;3.35;;;16.10;99.90;;;15.29;100.00;101334.75;5303307;22;20029;-74
2022/09/11 04:35:06;;;;;;;6.20;3.65;;;16.10;99.90;;;15.29;100.00;101330.25;5275904;22;20006;-74
2022/09/11 04:37:07;;;;;;;5.65;3.00;;;16.10;99.90;;;15.29;100.00;101324.94;5303803;22;20027;-74
2022/09/11 04:39:09;;;;;;;4.57;3.35;;;16.10;99.90;;;15.41;100.00;101344.03;5275960;22;20055;-74
2022/09/11 04:41:11;;;;;;;6.10;3.30;;;16.10;99.90;;;15.42;100.00;101335.03;5304033;22;20329;-74
2022/09/11 04:43:12;;;;;;;6.28;4.05;;;16.10;99.90;;;15.48;100.00;101351.16;5275897;22;20013;-74
2022/09/11 04:45:12;;;;;;;5.20;3.13;;;16.10;99.90;;;15.48;100.00;101363.63;5303919;22;19997;-74
2022/09/11 04:47:14;;;;;;;6.35;3.28;;;16.10;99.90;;;15.34;100.00;101341.22;5303505;22;20008;-74
2022/09/11 04:49:15;;;;;;;5.53;2.65;;;16.10;99.90;;;15.35;100.00;101340.19;5276360;22;20002;-74
2022/09/11 04:51:37;;;;;;;8.82;3.15;;;16.10;99.90;;;15.44;100.00;101355.13;5249526;22;20010;-74
2022/09/11 04:53:38;;;;;;;4.30;2.83;;;16.10;99.90;;;15.44;100.00;101359.63;5303919;22;20002;-74
2022/09/11 04:55:38;;;;;;;5.35;2.97;;;16.10;99.90;;;15.35;100.00;101345.50;5275819;22;20567;-74
2022/09/11 04:57:39;;;;;;;3.67;2.55;;;16.10;99.90;;;15.31;100.00;101348.69;5303614;22;20058;-74
2022/09/11 04:59:40;;;;;;;4.70;2.65;;;16.10;99.90;;;15.23;100.00;101336.25;5276100;22;20007;-74
2022/09/11 05:01:42;;;;;;;3.75;2.53;;;16.00;99.90;;;15.23;100.00;101348.75;5303700;22;19998;-74
2022/09/11 05:03:43;;;;;;;4.65;2.63;;;16.00;99.90;;;15.15;100.00;101341.59;5303728;22;20009;-74
2022/09/11 05:05:44;;;;;;;4.88;2.75;;;16.00;99.90;;;15.23;100.00;101362.03;5275776;22;20077;-74
2022/09/11 05:07:49;;;;;;;6.82;3.00;;;15.90;99.90;;;15.13;100.00;101356.91;5303678;22;20337;-74
2022/09/11 05:09:53;;;;;;;5.03;2.88;;;15.90;99.90;;;15.07;100.00;101341.63;5303665;22;20009;-74
2022/09/11 05:11:56;;;;;;;;;;;15.80;99.90;;;15.11;100.00;101366.88;5304253;22;20008;-74
2022/09/11 05:13:59;;;;;;;7.65;3.63;;;15.90;99.90;;;15.01;100.00;101347.63;5275896;22;19981;-74
2022/09/11 05:16:12;;;;;;;9.65;3.85;;;15.80;99.90;;;15.04;100.00;101343.81;5303518;22;20077;-74
2022/09/11 05:18:13;;;;;;;10.57;5.47;;;15.80;99.90;;;15.00;100.00;101348.63;5275278;22;20089;-75
2022/09/11 05:20:15;;;;;;;10.07;5.90;;;15.80;99.90;;;14.94;100.00;101347.47;5303583;22;19998;-74
2022/09/11 05:22:16;;;;;;;12.88;5.53;;;15.80;99.90;;;15.05;100.00;101370.22;5303628;22;19998;-74
2022/09/11 05:24:17;;;;;;;9.02;5.13;;;15.70;99.90;;;14.93;100.00;101360.94;5303372;22;20004;-74
2022/09/11 05:26:24;;;;;;;12.88;5.80;;;15.70;99.90;;;14.85;100.00;101355.63;5303362;22;20002;-74
2022/09/11 05:28:27;;;;;;;13.98;6.93;;;15.60;99.90;;;14.77;100.00;101356.47;5276379;22;19999;-74
2022/09/11 05:30:28;;;;;;;10.30;6.03;;;15.60;99.90;;;14.78;100.00;101362.63;5275406;22;20002;-74
2022/09/11 05:32:29;;;;;;;11.20;5.50;;;15.60;99.90;;;14.70;100.00;101354.66;5274622;22;19998;-74
2022/09/11 05:34:30;;;;;;;11.25;5.55;;;15.50;99.90;;;14.85;100.00;101379.53;5303200;22;20006;-74
2022/09/11 05:36:32;;;;;;;10.18;5.50;;;15.50;99.90;;;14.86;100.00;101389.16;5303242;22;20426;-74
2022/09/11 05:38:35;;;;;;;10.32;6.18;;;15.50;99.90;;;14.78;100.00;101367.94;5303156;22;20009;-74
2022/09/11 05:40:37;;;;;;;7.97;4.97;;;15.50;99.90;;;14.83;100.00;101368.25;5303313;22;19998;-74
2022/09/11 05:42:38;;;;;;;8.95;5.07;;;15.50;99.90;;;14.83;100.00;101369.09;5275656;22;20097;-74
2022/09/11 05:44:39;;;;;;;9.73;5.03;;;15.60;99.90;;;14.93;100.00;101379.53;5303239;22;20002;-74
2022/09/11 05:46:40;;;;;;;11.05;5.90;;;15.60;99.90;;;14.98;100.00;101382.50;5301487;22;20017;-74
2022/09/11 05:48:42;;;;;;;10.32;4.85;;;15.60;99.90;;;14.88;100.00;101365.91;5275489;22;20029;-74
2022/09/11 05:50:50;;;;;;;8.20;4.85;;;15.60;99.90;;;14.86;100.00;101359.94;5303301;22;20497;-74
2022/09/11 05:52:52;;;;;;;5.70;3.78;;;15.60;99.90;;;14.80;100.00;101361.47;5276914;22;20002;-74
2022/09/11 05:54:53;;;;;;;7.13;4.20;;;15.60;99.90;;;14.84;100.00;101378.69;5303441;22;20008;-74
2022/09/11 05:56:54;;;;;;;6.93;4.10;;;15.50;99.90;;;14.67;100.00;101362.94;5275269;22;20002;-74
2022/09/11 05:58:56;;;;;;;5.63;3.75;;;15.50;99.90;;;14.67;100.00;101371.75;5303288;22;20545;-74
2022/09/11 06:01:10;;;;;;;6.38;3.88;;;15.40;99.90;;;14.61;100.00;101358.31;5275255;22;20002;-74
2022/09/11 06:03:18;;;;;;;7.38;3.45;;;15.30;99.90;;;14.51;100.00;101352.34;5303097;22;19997;-74
2022/09/11 06:05:19;;;;;;;9.95;4.25;;;15.30;99.90;;;14.49;100.00;101363.13;5303326;22;20021;-74
2022/09/11 06:07:20;;;;;;;7.97;3.90;;;15.20;99.90;;;14.47;100.00;101351.03;5301779;22;20328;-74
2022/09/11 06:09:21;;;;;;;7.47;3.72;;;15.20;99.90;;;14.42;100.00;101351.53;5303278;22;20001;-74
2022/09/11 06:11:22;;;;;;;6.10;3.42;;;15.20;99.90;;;14.55;100.00;101373.06;5302982;22;20002;-74
2022/09/11 06:13:30;;;;;;;3.85;2.83;;;15.20;99.90;;;14.45;100.00;101353.03;5301708;22;20013;-74
2022/09/11 06:15:31;;;;;;;6.65;3.60;;;15.20;99.90;;;14.48;100.00;101350.03;5303036;22;20055;-74
2022/09/11 06:17:32;;;;;;;5.03;3.08;;;15.20;99.90;;;14.59;100.00;101368.28;5274866;22;20053;-74
2022/09/11 06:19:33;;;;;;;5.85;2.90;;;15.30;99.90;;;14.65;100.00;101367.59;5248979;22;20007;-74
2022/09/11 06:21:34;;;;;;;4.70;2.72;;;15.30;99.90;;;14.78;100.00;101384.69;5275166;22;20507;-74
2022/09/11 06:23:36;;;;;;;4.65;2.88;;;15.40;99.90;;;14.82;100.00;101371.91;5303062;22;20444;-74
2022/09/11 06:25:38;;;;;;;7.38;3.20;;;15.50;99.90;;;14.80;100.00;101356.13;5248681;22;20009;-74
2022/09/11 06:27:39;;;;;;;4.72;2.83;;;15.60;99.90;;;14.92;100.00;101359.28;5275362;22;20035;-74
2022/09/11 06:29:43;;;;;;;6.10;3.15;;;15.60;99.90;;;14.94;100.00;101346.63;5274878;22;20014;-74
2022/09/11 06:31:46;;;;;;;4.53;2.55;;;15.70;99.90;;;15.04;100.00;101347.28;5275277;22;20002;-74
2022/09/11 06:33:48;;;;;;;4.88;2.83;;;15.80;99.90;;;15.16;100.00;101359.22;5274907;22;20018;-74
2022/09/11 06:35:59;;;;;;;3.13;2.50;;;15.90;99.90;;;15.22;100.00;101349.72;5301215;22;20031;-74
2022/09/11 06:38:01;;;;;;;7.40;3.03;;;15.90;99.90;;;15.26;100.00;101354.50;5275271;22;20091;-74
2022/09/11 06:40:02;;;;;;;5.28;3.42;;;16.00;99.90;;;15.31;100.00;101362.81;5274957;22;20048;-74
2022/09/11 06:42:04;;;;;;;5.35;3.35;;;16.00;99.90;;;15.33;100.00;101344.88;5275096;22;20372;-74
2022/09/11 06:44:04;;;;;;;4.50;3.60;;;16.10;99.90;;;15.48;100.00;101366.28;5274428;22;20039;-74
2022/09/11 06:46:12;;;;;;;5.85;3.83;;;16.10;99.90;;;15.41;100.00;101336.84;5274958;22;20005;-74
2022/09/11 06:48:20;;;;;;;5.18;3.58;;;16.20;99.90;;;15.45;100.00;101340.84;5302347;22;19998;-74
2022/09/11 06:50:22;;;;;;;4.60;3.03;;;16.20;99.90;;;15.49;100.00;101347.50;5275731;22;20002;-74
2022/09/11 06:52:23;;;;;;;3.70;2.55;;;16.20;99.90;;;15.47;100.00;101348.69;5274625;22;20036;-74
2022/09/11 06:54:24;;;;;;;3.70;2.97;;;16.20;99.90;;;15.54;100.00;101375.38;5275086;22;20071;-74
2022/09/11 06:56:25;;;;;;;3.08;2.08;;;16.20;99.90;;;15.49;100.00;101374.09;5274880;22;20009;-74
2022/09/11 06:58:28;;;;;;;3.58;2.80;;;16.10;99.90;;;15.44;100.00;101368.41;5274588;22;20376;-74
2022/09/11 07:00:29;;;;;;;4.97;3.08;;;16.10;99.90;;;15.32;100.00;101358.34;5302625;22;20131;-74
2022/09/11 07:02:30;;;;;;;3.95;2.90;;;16.10;99.90;;;15.27;100.00;101352.69;5302249;22;20333;-74
2022/09/11 07:04:31;;;;;;;3.05;2.63;;;16.10;99.90;;;15.34;100.00;101365.13;5275053;22;20010;-74
2022/09/11 07:06:34;;;;;;;3.35;2.75;;;16.00;99.90;;;15.26;100.00;101351.84;5302549;22;19998;-74
2022/09/11 07:08:34;;;;;;;3.72;2.60;;;16.00;99.90;;;15.23;100.00;101346.09;5274964;22;20009;-74
2022/09/11 07:10:35;;;;;;;2.67;2.40;;;16.00;99.90;;;15.33;100.00;101366.13;5274772;22;20002;-74
2022/09/11 07:12:40;;;;;;;3.25;2.50;;;16.00;99.90;;;15.24;100.00;101351.22;5302563;22;20039;-74
2022/09/11 07:14:41;;;;;;;3.53;2.60;;;16.00;99.90;;;15.36;100.00;101368.44;5302868;22;20025;-74
2022/09/11 07:16:42;;;;;;;3.38;2.38;;;16.00;99.90;;;15.23;100.00;101335.44;5301858;22;20341;-74
2022/09/11 07:18:45;;;;;;;2.78;2.30;;;16.10;99.90;;;15.30;100.00;101347.03;5302313;22;20002;-74
2022/09/11 07:20:46;;;;;;;3.22;2.47;;;16.10;99.90;;;15.31;100.00;101338.91;5274928;22;20166;-74
2022/09/11 07:22:47;;;;;;;4.38;2.35;;;16.10;99.90;;;15.32;100.00;101337.06;5274768;22;19998;-74
2022/09/11 07:24:48;;;;;;;2.90;2.40;;;16.10;99.90;;;15.33;100.00;101331.56;5274690;22;20050;-74
2022/09/11 07:26:49;;;;;;;4.07;3.42;;;16.20;99.90;;;15.36;100.00;101330.41;5302392;22;20001;-74
2022/09/11 07:28:51;;;;;;;5.28;2.90;;;16.20;99.90;;;15.43;100.00;101337.53;5274535;22;20030;-74
2022/09/11 07:30:51;;;;;;;3.20;2.45;;;16.20;99.90;;;15.49;100.00;101338.69;5302480;22;20027;-74
2022/09/11 07:32:53;;;;;;;4.43;2.47;;;16.30;99.90;;;15.53;100.00;101339.19;5273961;22;20010;-74
2022/09/11 07:34:53;;;;;;;3.58;2.13;;;16.30;99.90;;;15.59;100.00;101349.13;5274324;22;20093;-74
2022/09/11 07:36:54;;;;;;;3.00;2.03;;;16.40;99.90;;;15.63;100.00;101342.44;5248452;22;20015;-74
2022/09/11 07:38:57;;;;;;;5.60;2.03;;;16.40;99.90;;;15.58;100.00;101323.53;5274360;22;20028;-74
2022/09/11 07:40:58;;;;;;;4.00;2.20;;;16.40;99.90;;;15.72;100.00;101349.38;5302440;22;20005;-74
2022/09/11 07:42:59;;;;;;;2.90;2.35;;;16.40;99.90;;;15.69;100.00;101337.25;5274574;22;20003;-74
2022/09/11 07:45:00;;;;;;;6.68;2.65;;;16.50;99.90;;;15.65;100.00;101317.31;5302698;22;20009;-74
2022/09/11 07:47:01;;;;;;;3.20;2.40;;;16.50;99.90;;;15.74;100.00;101340.22;5302010;22;20009;-74
2022/09/11 07:49:03;;;;;;;5.85;2.80;;;16.60;99.90;;;15.72;100.00;101314.78;5248172;22;20185;-74
2022/09/11 07:51:07;;;;;;;3.90;2.65;;;16.60;99.90;;;16.00;100.00;101356.69;5274331;22;20006;-74
2022/09/11 07:53:08;;;;;;;4.95;2.20;;;16.70;99.90;;;16.05;100.00;101354.31;5274750;22;20010;-74
2022/09/11 07:55:09;;;;;;;2.85;2.15;;;16.80;99.90;;;15.97;100.00;101326.94;5302945;22;20009;-74
2022/09/11 07:57:10;;;;;;;1.90;1.55;;;16.80;99.90;;;16.02;100.00;101327.22;5276353;22;20010;-74
2022/09/11 07:59:11;;;;;;;2.60;1.85;;;16.90;99.90;;;16.21;100.00;101340.09;5276333;22;20002;-74
2022/09/11 08:01:18;;;;;;;2.00;1.65;;;16.90;99.90;;;16.17;100.00;101327.28;5276423;22;20005;-74
2022/09/11 08:03:19;;;;;;;2.72;1.80;;;17.00;99.90;;;16.23;100.00;101324.75;5276670;22;20034;-74
2022/09/11 08:05:20;;;;;;;5.00;2.00;;;17.10;99.90;;;16.30;100.00;101324.88;5304084;22;19998;-74
2022/09/11 08:07:22;;;;;;;3.40;1.42;;;17.10;99.90;;;16.35;100.00;101323.31;5303947;22;20329;-74
2022/09/11 08:09:26;;;;;;;2.28;1.38;;;17.20;99.90;;;16.41;100.00;101322.59;5304046;22;20006;-74
2022/09/11 08:11:30;;;;;;;4.03;1.40;;;17.30;99.90;;;16.62;100.00;101345.09;5276124;22;20029;-74
2022/09/11 08:13:33;;;;;;;3.10;1.50;;;17.30;99.90;;;16.56;100.00;101320.84;5276290;22;20363;-74
2022/09/11 08:15:34;;;;;;;2.25;1.20;;;17.40;99.90;;;16.61;100.00;101309.63;5303966;22;20449;-74
2022/09/11 08:17:35;;;;;;;1.60;1.15;;;17.50;99.90;;;16.83;100.00;101331.91;5303646;22;20029;-74
2022/09/11 08:19:36;;;;;;;2.80;1.60;;;17.60;99.90;;;16.77;100.00;101311.31;5276052;22;20007;-74
2022/09/11 08:21:37;;;;;;;2.15;1.10;;;17.60;99.90;;;16.86;100.00;101313.72;5302615;22;19998;-74
2022/09/11 08:23:41;;;;;;;2.17;1.15;;;17.70;99.90;;;17.05;100.00;101329.13;5276035;22;20025;-74
2022/09/11 08:25:42;;;;;;;;;;;17.80;99.90;;;17.06;100.00;101325.47;5276487;22;20002;-74
2022/09/11 08:27:43;;;;;;;2.83;1.10;;;17.80;99.90;;;17.04;100.00;101308.00;5249496;22;19989;-74
2022/09/11 08:29:44;;;;;;;2.92;1.10;;;17.90;99.90;;;17.20;100.00;101321.16;5276344;22;19998;-74
2022/09/11 08:31:45;;;;;;;2.53;0.95;;;18.00;99.90;;;17.33;100.00;101326.66;5303511;22;20001;-74
2022/09/11 08:33:48;;;;;;;1.90;1.00;;;18.10;99.90;;;17.45;100.00;101329.66;5275709;22;20025;-74
2022/09/11 08:35:49;;;;;;;2.03;1.00;;;18.10;99.90;;;17.37;100.00;101303.94;5303850;22;20061;-74
2022/09/11 08:37:53;;;;;;;1.98;0.80;;;18.20;99.90;;;17.50;100.00;101313.94;5303842;22;20422;-74
2022/09/11 08:39:54;;;;;;;2.70;1.10;;;18.20;99.90;;;17.53;100.00;101314.38;5303673;22;20081;-74
2022/09/11 08:42:08;;;;;;;4.05;1.30;;;18.40;99.90;;;17.55;100.00;101315.06;5303728;22;20330;-74
2022/09/11 08:44:16;;;;;;;2.30;1.20;;;18.40;99.90;;;17.74;100.00;101336.84;5276570;22;20033;-74
2022/09/11 08:46:20;;;;;;;4.10;1.10;;;18.40;99.90;;;17.77;100.00;101329.25;5303786;22;19998;-74
2022/09/11 08:48:38;;;;;;;2.20;1.27;;;18.50;99.90;;;17.80;100.00;101314.72;5275941;22;20007;-74
2022/09/11 08:50:42;;;;;;;1.70;0.75;;;18.60;99.90;;;17.81;100.00;101303.03;5275721;22;20077;-74
2022/09/11 08:52:43;;;;;;;1.77;0.80;;;18.70;99.90;;;17.90;100.00;101315.22;5275808;22;20052;-74
2022/09/11 08:54:46;;;;;;;1.83;0.80;;;18.70;99.90;;;17.96;100.00;101304.63;5249526;22;20056;-74
2022/09/11 08:56:49;;;;;;;2.88;1.00;;;18.80;99.90;;;18.08;100.00;101305.78;5303905;22;19998;-74
2022/09/11 08:59:14;;;;;;;1.42;0.73;;;18.90;99.90;;;18.32;100.00;101331.25;5275819;22;20038;-74
2022/09/11 09:01:24;;;;;;;1.80;0.80;;;19.00;99.90;;;18.37;100.00;101323.50;5303857;22;20005;-74
2022/09/11 09:03:49;;;;;;;1.73;0.75;;;19.00;99.90;;;18.48;100.00;101325.66;5303258;22;20002;-74
2022/09/11 09:06:47;;;;;;;1.73;0.90;;;19.10;99.90;;;18.54;100.00;101324.91;5303789;22;20185;-74
2022/09/11 09:09:27;;;;;;;2.20;0.82;;;19.20;99.90;;;18.59;100.00;101317.13;5303507;22;20002;-74
2022/09/11 09:11:41;;;;;;;2.83;0.60;;;19.40;99.90;;;18.68;100.00;101299.94;5275632;22;20009;-74
2022/09/11 09:14:13;;;;;;;1.95;0.70;;;19.50;99.90;;;18.92;100.00;101321.88;5250033;22;20007;-74
2022/09/11 09:16:58;;;;;;;2.35;0.80;;;19.60;99.90;;;18.99;100.00;101328.09;5276131;22;20006;-74
2022/09/11 09:19:14;;;;;;;4.10;0.60;;;19.70;99.90;;;19.11;100.00;101332.72;5303410;22;20012;-74
2022/09/11 09:21:28;;;;;;;2.40;0.60;;;19.80;99.90;;;19.04;100.00;101306.94;5277008;22;20006;-74
2022/09/11 09:23:40;;;;;;;3.72;1.15;;;19.90;99.90;;;19.20;100.00;101320.78;5276608;22;20003;-74
2022/09/11 09:25:42;;;;;;;2.05;0.73;;;19.90;99.90;;;19.21;100.00;101309.09;5276232;22;20331;-74
2022/09/11 09:27:52;;;;;;;3.22;1.13;;;20.00;99.90;;;19.32;98.67;101321.09;5303416;22;20002;-74
2022/09/11 09:29:54;;;;;;;2.72;0.63;;;20.10;99.90;;;19.40;97.49;101317.44;5276590;22;20002;-74
2022/09/11 09:32:05;;;;;;;2.38;0.90;;;20.20;99.90;;;19.58;97.03;101331.91;5303226;22;20027;-74
2022/09/11 09:34:17;;;;;;;3.00;0.82;;;20.30;99.90;;;19.60;95.74;101319.16;5275820;22;20458;-74
2022/09/11 09:36:51;;;;;;;1.98;0.60;;;20.40;99.90;;;19.71;95.94;101323.91;5276659;22;20370;-74
2022/09/11 09:38:53;;;;;;;2.77;0.60;;;20.40;99.90;;;19.69;95.10;101314.44;5279430;22;20006;-74
2022/09/11 09:41:12;;;;;;;2.85;0.55;;;20.50;99.90;;;19.97;94.54;101343.78;5303288;22;20686;-74
2022/09/11 09:43:24;;;;;;;1.25;0.50;;;20.60;99.90;;;19.98;95.56;101329.34;5303612;22;20067;-74
2022/09/11 09:45:51;;;;;;;2.47;0.57;;;20.70;99.90;;;20.03;93.24;101316.19;5275322;22;20005;-74
2022/09/11 09:47:52;;;;;;;1.88;0.80;;;20.80;99.90;;;20.02;92.40;101301.13;5275535;22;20002;-74
2022/09/11 09:49:59;;;;;;;3.78;0.88;;;20.80;99.90;;;20.17;91.36;101313.31;5301643;22;20076;-74
2022/09/11 09:52:18;;;;;;;1.83;0.60;;;20.90;99.90;;;20.39;91.04;101336.25;5249575;22;20007;-74
2022/09/11 09:54:25;;;;;;;1.30;0.50;;;21.00;99.90;;;20.37;90.58;101324.06;5274965;22;20002;-74
2022/09/11 09:56:29;;;;;;;2.03;0.50;;;21.10;99.90;;;20.45;90.29;101313.16;5276403;22;20055;-74
2022/09/11 09:58:41;;;;;;;3.42;0.77;;;21.20;99.90;;;20.69;88.94;101327.78;5275575;22;20066;-74
2022/09/11 10:00:43;;;;;;;2.85;0.75;;;21.30;99.90;;;20.73;88.31;101319.09;5275965;22;20023;-74
2022/09/11 10:02:55;;;;;;;2.35;0.70;;;21.40;99.90;;;20.74;89.09;101304.66;5274771;22;19998;-74
2022/09/11 10:05:18;;;;;;;2.30;0.60;;;21.50;99.90;;;20.85;86.66;101308.56;5249634;22;20013;-74
2022/09/11 10:07:23;;;;;;;1.38;0.40;;;21.60;99.90;;;20.92;88.48;101310.19;5274836;22;20006;-74
2022/09/11 10:09:28;;;;;;;1.88;0.40;;;21.60;99.90;;;20.98;88.64;101303.16;5303075;22;20058;-74
2022/09/11 10:11:30;;;;;;;1.52;0.40;;;21.70;99.90;;;21.09;87.53;101304.41;5275386;22;20002;-74
2022/09/11 10:13:35;;;;;;;1.02;0.40;;;21.80;99.90;;;21.18;86.04;101306.66;5275165;22;20003;-74
2022/09/11 10:15:39;;;;;;;1.38;0.40;;;21.90;99.90;;;21.28;86.10;101314.25;5302940;22;20002;-74
2022/09/11 10:17:41;;;;;;;0.63;0.28;;;22.00;99.90;;;21.35;85.97;101315.88;5302545;22;20027;-74